sensor_id;sensor_type;location;lat;lon;timestamp;temperature;humidity
39189;DHT22;24915;50.858;4.376;2023-04-06T00:00:50;9.50;71.00
39189;DHT22;24915;50.858;4.376;2023-04-06T00:03:16;9.50;70.80
39189;DHT22;24915;50.858;4.376;2023-04-06T00:05:42;9.50;70.60
39189;DHT22;24915;50.858;4.376;2023-04-06T00:08:08;9.50;70.20
39189;DHT22;24915;50.858;4.376;2023-04-06T00:10:33;9.50;70.30
39189;DHT22;24915;50.858;4.376;2023-04-06T00:12:59;9.50;70.30
39189;DHT22;24915;50.858;4.376;2023-04-06T00:15:25;9.50;71.10
39189;DHT22;24915;50.858;4.376;2023-04-06T00:17:51;9.50;70.30
39189;DHT22;24915;50.858;4.376;2023-04-06T00:20:17;9.50;70.20
39189;DHT22;24915;50.858;4.376;2023-04-06T00:22:43;9.50;70.40
39189;DHT22;24915;50.858;4.376;2023-04-06T00:25:10;9.50;70.60
39189;DHT22;24915;50.858;4.376;2023-04-06T00:27:37;9.50;70.90
39189;DHT22;24915;50.858;4.376;2023-04-06T00:30:04;9.50;71.00
39189;DHT22;24915;50.858;4.376;2023-04-06T00:32:31;9.50;71.90
39189;DHT22;24915;50.858;4.376;2023-04-06T00:34:57;9.50;71.10
39189;DHT22;24915;50.858;4.376;2023-04-06T00:37:23;9.50;71.00
39189;DHT22;24915;50.858;4.376;2023-04-06T00:39:48;9.50;71.30
39189;DHT22;24915;50.858;4.376;2023-04-06T00:42:15;9.50;71.50
39189;DHT22;24915;50.858;4.376;2023-04-06T00:44:41;9.50;71.80
39189;DHT22;24915;50.858;4.376;2023-04-06T00:47:07;9.50;72.00
39189;DHT22;24915;50.858;4.376;2023-04-06T00:49:33;9.50;71.40
39189;DHT22;24915;50.858;4.376;2023-04-06T00:51:59;9.50;71.60
39189;DHT22;24915;50.858;4.376;2023-04-06T00:54:25;9.50;71.60
39189;DHT22;24915;50.858;4.376;2023-04-06T00:56:51;9.50;71.70
39189;DHT22;24915;50.858;4.376;2023-04-06T00:59:17;9.50;72.00
39189;DHT22;24915;50.858;4.376;2023-04-06T01:01:42;9.50;72.10
39189;DHT22;24915;50.858;4.376;2023-04-06T01:04:08;9.50;72.40
39189;DHT22;24915;50.858;4.376;2023-04-06T01:06:34;9.40;72.50
39189;DHT22;24915;50.858;4.376;2023-04-06T01:08:59;9.40;72.90
39189;DHT22;24915;50.858;4.376;2023-04-06T01:11:25;9.40;73.30
39189;DHT22;24915;50.858;4.376;2023-04-06T01:13:52;9.40;73.30
39189;DHT22;24915;50.858;4.376;2023-04-06T01:16:17;9.40;73.20
39189;DHT22;24915;50.858;4.376;2023-04-06T01:18:43;9.40;72.90
39189;DHT22;24915;50.858;4.376;2023-04-06T01:21:09;9.40;73.40
39189;DHT22;24915;50.858;4.376;2023-04-06T01:23:43;9.40;73.00
39189;DHT22;24915;50.858;4.376;2023-04-06T01:26:09;9.40;73.10
39189;DHT22;24915;50.858;4.376;2023-04-06T01:28:35;9.30;73.20
39189;DHT22;24915;50.858;4.376;2023-04-06T01:31:03;9.30;73.30
39189;DHT22;24915;50.858;4.376;2023-04-06T01:33:28;9.30;73.40
39189;DHT22;24915;50.858;4.376;2023-04-06T01:35:54;9.30;73.40
39189;DHT22;24915;50.858;4.376;2023-04-06T01:38:20;9.30;73.40
39189;DHT22;24915;50.858;4.376;2023-04-06T01:40:46;9.30;73.60
39189;DHT22;24915;50.858;4.376;2023-04-06T01:43:11;9.20;73.80
39189;DHT22;24915;50.858;4.376;2023-04-06T01:45:37;9.20;74.00
39189;DHT22;24915;50.858;4.376;2023-04-06T01:48:03;9.20;74.30
39189;DHT22;24915;50.858;4.376;2023-04-06T01:50:30;9.20;74.20
39189;DHT22;24915;50.858;4.376;2023-04-06T01:52:55;9.20;74.50
39189;DHT22;24915;50.858;4.376;2023-04-06T01:55:21;9.10;74.50
39189;DHT22;24915;50.858;4.376;2023-04-06T01:57:47;9.10;74.70
39189;DHT22;24915;50.858;4.376;2023-04-06T02:00:13;9.10;75.10
39189;DHT22;24915;50.858;4.376;2023-04-06T02:02:39;9.10;75.00
39189;DHT22;24915;50.858;4.376;2023-04-06T02:05:05;9.10;75.20
39189;DHT22;24915;50.858;4.376;2023-04-06T02:07:31;9.00;75.40
39189;DHT22;24915;50.858;4.376;2023-04-06T02:09:57;9.00;75.40
39189;DHT22;24915;50.858;4.376;2023-04-06T02:12:23;9.00;75.40
39189;DHT22;24915;50.858;4.376;2023-04-06T02:14:49;9.00;75.40
39189;DHT22;24915;50.858;4.376;2023-04-06T02:17:14;9.00;75.50
39189;DHT22;24915;50.858;4.376;2023-04-06T02:19:40;9.00;75.40
39189;DHT22;24915;50.858;4.376;2023-04-06T02:22:06;9.00;75.50
39189;DHT22;24915;50.858;4.376;2023-04-06T02:24:32;9.00;75.40
39189;DHT22;24915;50.858;4.376;2023-04-06T02:26:57;9.00;75.60
39189;DHT22;24915;50.858;4.376;2023-04-06T02:29:23;8.90;75.50
39189;DHT22;24915;50.858;4.376;2023-04-06T02:31:49;9.00;75.50
39189;DHT22;24915;50.858;4.376;2023-04-06T02:34:14;9.00;75.60
39189;DHT22;24915;50.858;4.376;2023-04-06T02:36:46;8.90;75.50
39189;DHT22;24915;50.858;4.376;2023-04-06T02:39:12;8.90;75.90
39189;DHT22;24915;50.858;4.376;2023-04-06T02:41:39;9.00;75.90
39189;DHT22;24915;50.858;4.376;2023-04-06T02:44:07;9.00;76.20
39189;DHT22;24915;50.858;4.376;2023-04-06T02:46:33;9.00;76.20
39189;DHT22;24915;50.858;4.376;2023-04-06T02:48:58;9.00;76.20
39189;DHT22;24915;50.858;4.376;2023-04-06T02:51:26;9.00;76.30
39189;DHT22;24915;50.858;4.376;2023-04-06T02:53:52;9.00;75.90
39189;DHT22;24915;50.858;4.376;2023-04-06T02:56:18;9.00;76.00
39189;DHT22;24915;50.858;4.376;2023-04-06T02:58:43;9.00;76.20
39189;DHT22;24915;50.858;4.376;2023-04-06T03:01:09;9.00;76.30
39189;DHT22;24915;50.858;4.376;2023-04-06T03:03:35;9.00;76.20
39189;DHT22;24915;50.858;4.376;2023-04-06T03:06:00;8.90;76.60
39189;DHT22;24915;50.858;4.376;2023-04-06T03:08:26;8.90;76.50
39189;DHT22;24915;50.858;4.376;2023-04-06T03:10:52;8.90;76.60
39189;DHT22;24915;50.858;4.376;2023-04-06T03:13:17;8.90;76.80
39189;DHT22;24915;50.858;4.376;2023-04-06T03:15:43;8.90;77.10
39189;DHT22;24915;50.858;4.376;2023-04-06T03:18:08;8.90;77.40
39189;DHT22;24915;50.858;4.376;2023-04-06T03:20:34;8.80;77.50
39189;DHT22;24915;50.858;4.376;2023-04-06T03:23:00;8.80;77.60
39189;DHT22;24915;50.858;4.376;2023-04-06T03:25:25;8.80;77.60
39189;DHT22;24915;50.858;4.376;2023-04-06T03:27:51;8.80;77.80
39189;DHT22;24915;50.858;4.376;2023-04-06T03:30:17;8.80;77.80
39189;DHT22;24915;50.858;4.376;2023-04-06T03:32:46;8.80;77.80
39189;DHT22;24915;50.858;4.376;2023-04-06T03:35:11;8.80;78.00
39189;DHT22;24915;50.858;4.376;2023-04-06T03:37:37;8.80;78.00
39189;DHT22;24915;50.858;4.376;2023-04-06T03:40:04;8.80;78.00
39189;DHT22;24915;50.858;4.376;2023-04-06T03:42:30;8.80;78.00
39189;DHT22;24915;50.858;4.376;2023-04-06T03:44:56;8.80;78.20
39189;DHT22;24915;50.858;4.376;2023-04-06T03:47:23;8.80;78.50
39189;DHT22;24915;50.858;4.376;2023-04-06T03:49:48;8.80;78.50
39189;DHT22;24915;50.858;4.376;2023-04-06T03:52:14;8.70;78.60
39189;DHT22;24915;50.858;4.376;2023-04-06T03:54:40;8.80;78.40
39189;DHT22;24915;50.858;4.376;2023-04-06T03:57:05;8.80;78.00
39189;DHT22;24915;50.858;4.376;2023-04-06T03:59:31;8.80;78.20
39189;DHT22;24915;50.858;4.376;2023-04-06T04:01:57;8.80;78.30
39189;DHT22;24915;50.858;4.376;2023-04-06T04:04:22;8.80;78.70
39189;DHT22;24915;50.858;4.376;2023-04-06T04:06:48;8.80;78.80
39189;DHT22;24915;50.858;4.376;2023-04-06T04:09:13;8.70;78.90
39189;DHT22;24915;50.858;4.376;2023-04-06T04:11:39;8.80;79.10
39189;DHT22;24915;50.858;4.376;2023-04-06T04:14:05;8.80;79.00
39189;DHT22;24915;50.858;4.376;2023-04-06T04:16:30;8.80;79.30
39189;DHT22;24915;50.858;4.376;2023-04-06T04:18:56;8.80;79.10
39189;DHT22;24915;50.858;4.376;2023-04-06T04:21:23;8.80;79.10
39189;DHT22;24915;50.858;4.376;2023-04-06T04:23:49;8.80;79.40
39189;DHT22;24915;50.858;4.376;2023-04-06T04:26:16;8.80;79.50
39189;DHT22;24915;50.858;4.376;2023-04-06T04:28:41;8.80;79.80
39189;DHT22;24915;50.858;4.376;2023-04-06T04:31:07;8.70;80.00
39189;DHT22;24915;50.858;4.376;2023-04-06T04:33:33;8.80;80.10
39189;DHT22;24915;50.858;4.376;2023-04-06T04:35:58;8.80;80.50
39189;DHT22;24915;50.858;4.376;2023-04-06T04:38:24;8.80;80.70
39189;DHT22;24915;50.858;4.376;2023-04-06T04:40:49;8.80;81.20
39189;DHT22;24915;50.858;4.376;2023-04-06T04:43:15;8.70;81.40
39189;DHT22;24915;50.858;4.376;2023-04-06T04:45:40;8.80;81.70
39189;DHT22;24915;50.858;4.376;2023-04-06T04:48:06;8.80;82.10
39189;DHT22;24915;50.858;4.376;2023-04-06T04:50:33;8.70;82.40
39189;DHT22;24915;50.858;4.376;2023-04-06T04:52:59;8.70;82.60
39189;DHT22;24915;50.858;4.376;2023-04-06T04:55:25;8.70;82.90
39189;DHT22;24915;50.858;4.376;2023-04-06T04:57:51;8.70;83.10
39189;DHT22;24915;50.858;4.376;2023-04-06T05:00:17;8.70;83.40
39189;DHT22;24915;50.858;4.376;2023-04-06T05:02:42;8.70;83.70
39189;DHT22;24915;50.858;4.376;2023-04-06T05:05:08;8.70;83.90
39189;DHT22;24915;50.858;4.376;2023-04-06T05:07:34;8.70;84.30
39189;DHT22;24915;50.858;4.376;2023-04-06T05:10:00;8.70;84.40
39189;DHT22;24915;50.858;4.376;2023-04-06T05:12:26;8.70;84.90
39189;DHT22;24915;50.858;4.376;2023-04-06T05:14:53;8.70;85.10
39189;DHT22;24915;50.858;4.376;2023-04-06T05:17:19;8.80;85.20
39189;DHT22;24915;50.858;4.376;2023-04-06T05:19:45;8.70;85.50
39189;DHT22;24915;50.858;4.376;2023-04-06T05:22:11;8.70;85.80
39189;DHT22;24915;50.858;4.376;2023-04-06T05:24:36;8.70;85.90
39189;DHT22;24915;50.858;4.376;2023-04-06T05:27:02;8.70;86.20
39189;DHT22;24915;50.858;4.376;2023-04-06T05:29:28;8.60;86.50
39189;DHT22;24915;50.858;4.376;2023-04-06T05:31:54;8.60;86.80
39189;DHT22;24915;50.858;4.376;2023-04-06T05:34:20;8.60;87.90
39189;DHT22;24915;50.858;4.376;2023-04-06T05:36:46;8.60;88.20
39189;DHT22;24915;50.858;4.376;2023-04-06T05:39:12;8.60;87.70
39189;DHT22;24915;50.858;4.376;2023-04-06T05:41:37;8.60;88.00
39189;DHT22;24915;50.858;4.376;2023-04-06T05:44:03;8.50;88.30
39189;DHT22;24915;50.858;4.376;2023-04-06T05:46:29;8.60;88.50
39189;DHT22;24915;50.858;4.376;2023-04-06T05:48:55;8.60;88.80
39189;DHT22;24915;50.858;4.376;2023-04-06T05:51:21;8.60;89.20
39189;DHT22;24915;50.858;4.376;2023-04-06T05:53:47;8.60;89.50
39189;DHT22;24915;50.858;4.376;2023-04-06T05:56:12;8.60;89.70
39189;DHT22;24915;50.858;4.376;2023-04-06T05:58:38;8.60;90.00
39189;DHT22;24915;50.858;4.376;2023-04-06T06:01:04;8.70;90.10
39189;DHT22;24915;50.858;4.376;2023-04-06T06:03:30;8.70;90.10
39189;DHT22;24915;50.858;4.376;2023-04-06T06:06:00;8.70;90.30
39189;DHT22;24915;50.858;4.376;2023-04-06T06:08:27;8.70;90.40
39189;DHT22;24915;50.858;4.376;2023-04-06T06:10:53;8.70;90.60
39189;DHT22;24915;50.858;4.376;2023-04-06T06:13:19;8.60;90.80
39189;DHT22;24915;50.858;4.376;2023-04-06T06:15:44;8.60;90.90
39189;DHT22;24915;50.858;4.376;2023-04-06T06:18:10;8.60;91.00
39189;DHT22;24915;50.858;4.376;2023-04-06T06:20:36;8.70;91.10
39189;DHT22;24915;50.858;4.376;2023-04-06T06:23:02;8.70;91.30
39189;DHT22;24915;50.858;4.376;2023-04-06T06:25:28;8.70;91.50
39189;DHT22;24915;50.858;4.376;2023-04-06T06:27:56;8.70;91.90
39189;DHT22;24915;50.858;4.376;2023-04-06T06:30:22;8.70;92.20
39189;DHT22;24915;50.858;4.376;2023-04-06T06:32:49;8.70;92.70
39189;DHT22;24915;50.858;4.376;2023-04-06T06:35:15;8.70;93.30
39189;DHT22;24915;50.858;4.376;2023-04-06T06:37:40;8.60;93.90
39189;DHT22;24915;50.858;4.376;2023-04-06T06:40:06;8.70;94.90
39189;DHT22;24915;50.858;4.376;2023-04-06T06:42:32;8.70;95.70
39189;DHT22;24915;50.858;4.376;2023-04-06T06:44:58;8.70;97.10
39189;DHT22;24915;50.858;4.376;2023-04-06T06:47:24;8.70;97.90
39189;DHT22;24915;50.858;4.376;2023-04-06T06:49:50;8.70;98.90
39189;DHT22;24915;50.858;4.376;2023-04-06T06:52:16;8.60;99.90
39189;DHT22;24915;50.858;4.376;2023-04-06T06:54:42;8.50;99.90
39189;DHT22;24915;50.858;4.376;2023-04-06T06:57:07;8.50;99.90
39189;DHT22;24915;50.858;4.376;2023-04-06T06:59:33;8.50;99.90
39189;DHT22;24915;50.858;4.376;2023-04-06T07:01:59;8.50;99.90
39189;DHT22;24915;50.858;4.376;2023-04-06T07:04:24;8.50;99.90
39189;DHT22;24915;50.858;4.376;2023-04-06T07:06:50;8.40;99.90
39189;DHT22;24915;50.858;4.376;2023-04-06T07:09:16;8.40;99.90
39189;DHT22;24915;50.858;4.376;2023-04-06T07:11:42;8.40;99.90
39189;DHT22;24915;50.858;4.376;2023-04-06T07:14:07;8.40;99.90
39189;DHT22;24915;50.858;4.376;2023-04-06T07:16:33;8.50;99.90
39189;DHT22;24915;50.858;4.376;2023-04-06T07:18:59;8.50;99.90
39189;DHT22;24915;50.858;4.376;2023-04-06T07:21:24;8.50;99.90
39189;DHT22;24915;50.858;4.376;2023-04-06T07:23:50;8.50;99.90
39189;DHT22;24915;50.858;4.376;2023-04-06T07:26:16;8.50;99.90
39189;DHT22;24915;50.858;4.376;2023-04-06T07:28:42;8.50;99.90
39189;DHT22;24915;50.858;4.376;2023-04-06T07:31:07;8.50;99.90
39189;DHT22;24915;50.858;4.376;2023-04-06T07:33:33;8.50;99.90
39189;DHT22;24915;50.858;4.376;2023-04-06T07:35:58;8.50;99.90
39189;DHT22;24915;50.858;4.376;2023-04-06T07:38:24;8.50;99.90
39189;DHT22;24915;50.858;4.376;2023-04-06T07:40:50;8.50;99.90
39189;DHT22;24915;50.858;4.376;2023-04-06T07:43:16;8.50;99.90
39189;DHT22;24915;50.858;4.376;2023-04-06T07:45:42;8.50;99.90
39189;DHT22;24915;50.858;4.376;2023-04-06T07:48:07;8.50;99.90
39189;DHT22;24915;50.858;4.376;2023-04-06T07:50:33;8.50;99.90
39189;DHT22;24915;50.858;4.376;2023-04-06T07:52:59;8.50;99.90
39189;DHT22;24915;50.858;4.376;2023-04-06T07:55:25;8.60;99.90
39189;DHT22;24915;50.858;4.376;2023-04-06T07:57:51;8.50;99.90
39189;DHT22;24915;50.858;4.376;2023-04-06T08:00:17;8.40;99.90
39189;DHT22;24915;50.858;4.376;2023-04-06T08:02:43;8.40;99.90
39189;DHT22;24915;50.858;4.376;2023-04-06T08:05:09;8.40;99.90
39189;DHT22;24915;50.858;4.376;2023-04-06T08:07:34;8.40;99.90
39189;DHT22;24915;50.858;4.376;2023-04-06T08:10:01;8.40;99.90
39189;DHT22;24915;50.858;4.376;2023-04-06T08:12:27;8.40;99.90
39189;DHT22;24915;50.858;4.376;2023-04-06T08:14:52;8.30;99.90
39189;DHT22;24915;50.858;4.376;2023-04-06T08:17:18;8.40;99.90
39189;DHT22;24915;50.858;4.376;2023-04-06T08:19:44;8.40;99.90
39189;DHT22;24915;50.858;4.376;2023-04-06T08:22:11;8.30;99.90
39189;DHT22;24915;50.858;4.376;2023-04-06T08:24:36;8.30;99.90
39189;DHT22;24915;50.858;4.376;2023-04-06T08:27:02;8.30;99.90
39189;DHT22;24915;50.858;4.376;2023-04-06T08:29:28;8.30;99.90
39189;DHT22;24915;50.858;4.376;2023-04-06T08:31:54;8.30;99.90
39189;DHT22;24915;50.858;4.376;2023-04-06T08:34:20;8.30;99.90
39189;DHT22;24915;50.858;4.376;2023-04-06T08:36:46;8.30;99.90
39189;DHT22;24915;50.858;4.376;2023-04-06T08:39:12;8.30;99.90
39189;DHT22;24915;50.858;4.376;2023-04-06T08:41:41;8.30;99.90
39189;DHT22;24915;50.858;4.376;2023-04-06T08:44:06;8.20;99.90
39189;DHT22;24915;50.858;4.376;2023-04-06T08:46:32;8.20;99.90
39189;DHT22;24915;50.858;4.376;2023-04-06T08:48:59;8.30;99.90
39189;DHT22;24915;50.858;4.376;2023-04-06T08:51:26;8.30;99.90
39189;DHT22;24915;50.858;4.376;2023-04-06T08:53:56;8.30;99.90
39189;DHT22;24915;50.858;4.376;2023-04-06T08:56:23;8.30;99.90
39189;DHT22;24915;50.858;4.376;2023-04-06T08:58:49;8.30;99.90
39189;DHT22;24915;50.858;4.376;2023-04-06T09:01:18;8.30;99.90
39189;DHT22;24915;50.858;4.376;2023-04-06T09:03:46;8.30;99.90
39189;DHT22;24915;50.858;4.376;2023-04-06T09:06:14;8.30;99.90
39189;DHT22;24915;50.858;4.376;2023-04-06T09:08:40;8.30;99.90
39189;DHT22;24915;50.858;4.376;2023-04-06T09:11:07;8.30;99.90
39189;DHT22;24915;50.858;4.376;2023-04-06T09:13:47;8.30;99.90
39189;DHT22;24915;50.858;4.376;2023-04-06T09:16:13;8.40;99.90
39189;DHT22;24915;50.858;4.376;2023-04-06T09:18:39;8.30;99.90
39189;DHT22;24915;50.858;4.376;2023-04-06T09:21:07;8.30;99.90
39189;DHT22;24915;50.858;4.376;2023-04-06T09:23:33;8.40;99.90
39189;DHT22;24915;50.858;4.376;2023-04-06T09:26:17;8.40;99.90
39189;DHT22;24915;50.858;4.376;2023-04-06T09:28:47;8.40;99.90
39189;DHT22;24915;50.858;4.376;2023-04-06T09:31:15;8.40;99.90
39189;DHT22;24915;50.858;4.376;2023-04-06T09:33:42;8.40;99.90
39189;DHT22;24915;50.858;4.376;2023-04-06T09:36:08;8.40;99.90
39189;DHT22;24915;50.858;4.376;2023-04-06T09:38:55;8.40;99.90
39189;DHT22;24915;50.858;4.376;2023-04-06T09:41:26;8.40;99.90
39189;DHT22;24915;50.858;4.376;2023-04-06T09:44:04;8.40;99.90
39189;DHT22;24915;50.858;4.376;2023-04-06T09:46:37;8.50;99.90
39189;DHT22;24915;50.858;4.376;2023-04-06T09:49:04;8.40;99.90
39189;DHT22;24915;50.858;4.376;2023-04-06T09:51:33;8.40;99.90
39189;DHT22;24915;50.858;4.376;2023-04-06T09:54:01;8.40;99.90
39189;DHT22;24915;50.858;4.376;2023-04-06T09:56:33;8.40;99.90
39189;DHT22;24915;50.858;4.376;2023-04-06T09:59:13;8.40;99.90
39189;DHT22;24915;50.858;4.376;2023-04-06T10:01:40;8.40;99.90
39189;DHT22;24915;50.858;4.376;2023-04-06T10:04:18;8.40;99.90
39189;DHT22;24915;50.858;4.376;2023-04-06T10:06:46;8.50;99.90
39189;DHT22;24915;50.858;4.376;2023-04-06T10:09:17;8.40;99.90
39189;DHT22;24915;50.858;4.376;2023-04-06T10:11:44;8.40;99.90
39189;DHT22;24915;50.858;4.376;2023-04-06T10:14:10;8.40;99.90
39189;DHT22;24915;50.858;4.376;2023-04-06T10:16:37;8.40;99.90
39189;DHT22;24915;50.858;4.376;2023-04-06T10:19:13;8.50;99.90
39189;DHT22;24915;50.858;4.376;2023-04-06T10:21:40;8.40;99.90
39189;DHT22;24915;50.858;4.376;2023-04-06T10:24:10;8.50;99.90
39189;DHT22;24915;50.858;4.376;2023-04-06T10:26:36;8.60;99.90
39189;DHT22;24915;50.858;4.376;2023-04-06T10:29:05;8.60;99.90
39189;DHT22;24915;50.858;4.376;2023-04-06T10:31:31;8.60;99.90
39189;DHT22;24915;50.858;4.376;2023-04-06T10:33:58;8.60;99.90
39189;DHT22;24915;50.858;4.376;2023-04-06T10:36:31;8.60;99.90
39189;DHT22;24915;50.858;4.376;2023-04-06T10:38:59;8.60;99.90
39189;DHT22;24915;50.858;4.376;2023-04-06T10:41:42;8.60;99.90
39189;DHT22;24915;50.858;4.376;2023-04-06T10:44:20;8.50;99.90
39189;DHT22;24915;50.858;4.376;2023-04-06T10:46:58;8.60;99.90
39189;DHT22;24915;50.858;4.376;2023-04-06T10:49:26;8.70;99.90
39189;DHT22;24915;50.858;4.376;2023-04-06T10:51:53;8.70;99.90
39189;DHT22;24915;50.858;4.376;2023-04-06T10:54:21;8.70;99.90
39189;DHT22;24915;50.858;4.376;2023-04-06T10:56:48;8.70;99.90
39189;DHT22;24915;50.858;4.376;2023-04-06T10:59:19;8.60;99.90
39189;DHT22;24915;50.858;4.376;2023-04-06T11:01:45;8.70;99.90
39189;DHT22;24915;50.858;4.376;2023-04-06T11:04:19;8.70;99.90
39189;DHT22;24915;50.858;4.376;2023-04-06T11:06:49;8.70;99.90
39189;DHT22;24915;50.858;4.376;2023-04-06T11:09:28;8.80;99.90
39189;DHT22;24915;50.858;4.376;2023-04-06T11:11:55;8.80;99.90
39189;DHT22;24915;50.858;4.376;2023-04-06T11:14:21;8.90;99.90
39189;DHT22;24915;50.858;4.376;2023-04-06T11:16:48;8.80;99.90
39189;DHT22;24915;50.858;4.376;2023-04-06T11:19:15;8.80;99.90
39189;DHT22;24915;50.858;4.376;2023-04-06T11:21:43;8.80;99.90
39189;DHT22;24915;50.858;4.376;2023-04-06T11:24:10;8.90;99.90
39189;DHT22;24915;50.858;4.376;2023-04-06T11:26:49;8.90;99.90
39189;DHT22;24915;50.858;4.376;2023-04-06T11:29:21;9.00;99.90
39189;DHT22;24915;50.858;4.376;2023-04-06T11:31:51;9.00;99.90
39189;DHT22;24915;50.858;4.376;2023-04-06T11:34:19;9.00;99.90
39189;DHT22;24915;50.858;4.376;2023-04-06T11:36:46;9.10;99.90
39189;DHT22;24915;50.858;4.376;2023-04-06T11:39:18;9.10;99.90
39189;DHT22;24915;50.858;4.376;2023-04-06T11:41:51;9.10;99.90
39189;DHT22;24915;50.858;4.376;2023-04-06T11:47:07;9.10;99.90
39189;DHT22;24915;50.858;4.376;2023-04-06T11:49:37;9.10;99.90
39189;DHT22;24915;50.858;4.376;2023-04-06T11:52:17;9.10;99.90
39189;DHT22;24915;50.858;4.376;2023-04-06T11:54:44;9.10;99.90
39189;DHT22;24915;50.858;4.376;2023-04-06T11:57:10;9.00;99.90
39189;DHT22;24915;50.858;4.376;2023-04-06T11:59:36;8.90;99.90
39189;DHT22;24915;50.858;4.376;2023-04-06T12:02:02;8.90;99.90
39189;DHT22;24915;50.858;4.376;2023-04-06T12:04:29;8.90;99.90
39189;DHT22;24915;50.858;4.376;2023-04-06T12:06:56;8.90;99.90
39189;DHT22;24915;50.858;4.376;2023-04-06T12:09:22;9.00;99.90
39189;DHT22;24915;50.858;4.376;2023-04-06T12:11:48;9.00;99.90
39189;DHT22;24915;50.858;4.376;2023-04-06T12:14:14;9.10;99.90
39189;DHT22;24915;50.858;4.376;2023-04-06T12:16:40;9.00;99.90
39189;DHT22;24915;50.858;4.376;2023-04-06T12:19:06;9.10;99.90
39189;DHT22;24915;50.858;4.376;2023-04-06T12:21:34;9.00;99.90
39189;DHT22;24915;50.858;4.376;2023-04-06T12:24:00;9.00;99.90
39189;DHT22;24915;50.858;4.376;2023-04-06T12:26:26;9.00;99.90
39189;DHT22;24915;50.858;4.376;2023-04-06T12:28:52;9.00;99.90
39189;DHT22;24915;50.858;4.376;2023-04-06T12:31:22;9.00;99.90
39189;DHT22;24915;50.858;4.376;2023-04-06T12:33:49;9.10;99.90
39189;DHT22;24915;50.858;4.376;2023-04-06T12:36:16;9.00;99.90
39189;DHT22;24915;50.858;4.376;2023-04-06T12:38:44;9.00;99.90
39189;DHT22;24915;50.858;4.376;2023-04-06T12:41:11;8.90;99.90
39189;DHT22;24915;50.858;4.376;2023-04-06T12:43:37;8.90;99.90
39189;DHT22;24915;50.858;4.376;2023-04-06T12:46:03;8.90;99.90
39189;DHT22;24915;50.858;4.376;2023-04-06T12:48:29;8.80;99.90
39189;DHT22;24915;50.858;4.376;2023-04-06T12:50:58;8.90;99.90
39189;DHT22;24915;50.858;4.376;2023-04-06T12:53:24;8.90;99.90
39189;DHT22;24915;50.858;4.376;2023-04-06T12:55:50;8.90;99.90
39189;DHT22;24915;50.858;4.376;2023-04-06T12:58:15;8.90;99.90
39189;DHT22;24915;50.858;4.376;2023-04-06T13:00:42;8.90;99.90
39189;DHT22;24915;50.858;4.376;2023-04-06T13:03:08;8.80;99.90
39189;DHT22;24915;50.858;4.376;2023-04-06T13:05:34;8.80;99.90
39189;DHT22;24915;50.858;4.376;2023-04-06T13:08:00;8.80;99.90
39189;DHT22;24915;50.858;4.376;2023-04-06T13:10:26;8.80;99.90
39189;DHT22;24915;50.858;4.376;2023-04-06T13:12:52;8.90;99.90
39189;DHT22;24915;50.858;4.376;2023-04-06T13:15:17;8.90;99.90
39189;DHT22;24915;50.858;4.376;2023-04-06T13:17:43;8.80;99.90
39189;DHT22;24915;50.858;4.376;2023-04-06T13:20:09;8.80;99.90
39189;DHT22;24915;50.858;4.376;2023-04-06T13:22:35;8.90;99.90
39189;DHT22;24915;50.858;4.376;2023-04-06T13:25:01;8.90;99.90
39189;DHT22;24915;50.858;4.376;2023-04-06T13:27:27;8.90;99.90
39189;DHT22;24915;50.858;4.376;2023-04-06T13:29:53;9.00;99.90
39189;DHT22;24915;50.858;4.376;2023-04-06T13:32:20;9.00;99.90
39189;DHT22;24915;50.858;4.376;2023-04-06T13:34:46;9.10;99.90
39189;DHT22;24915;50.858;4.376;2023-04-06T13:37:13;9.10;99.90
39189;DHT22;24915;50.858;4.376;2023-04-06T13:39:39;9.10;99.90
39189;DHT22;24915;50.858;4.376;2023-04-06T13:42:04;9.10;99.90
39189;DHT22;24915;50.858;4.376;2023-04-06T13:44:30;9.10;99.90
39189;DHT22;24915;50.858;4.376;2023-04-06T13:46:56;9.10;99.90
39189;DHT22;24915;50.858;4.376;2023-04-06T13:49:22;9.10;99.90
39189;DHT22;24915;50.858;4.376;2023-04-06T13:51:48;9.10;99.90
39189;DHT22;24915;50.858;4.376;2023-04-06T13:54:13;9.20;99.90
39189;DHT22;24915;50.858;4.376;2023-04-06T13:56:39;9.20;99.90
39189;DHT22;24915;50.858;4.376;2023-04-06T13:59:05;9.20;99.90
39189;DHT22;24915;50.858;4.376;2023-04-06T14:01:31;9.30;99.90
39189;DHT22;24915;50.858;4.376;2023-04-06T14:03:56;9.20;99.90
39189;DHT22;24915;50.858;4.376;2023-04-06T14:06:22;9.20;99.90
39189;DHT22;24915;50.858;4.376;2023-04-06T14:08:47;9.20;99.90
39189;DHT22;24915;50.858;4.376;2023-04-06T14:11:13;9.20;99.90
39189;DHT22;24915;50.858;4.376;2023-04-06T14:13:39;9.10;99.90
39189;DHT22;24915;50.858;4.376;2023-04-06T14:16:06;9.10;99.90
39189;DHT22;24915;50.858;4.376;2023-04-06T14:18:32;9.10;99.90
39189;DHT22;24915;50.858;4.376;2023-04-06T14:21:00;9.00;99.90
39189;DHT22;24915;50.858;4.376;2023-04-06T14:23:27;9.00;99.90
39189;DHT22;24915;50.858;4.376;2023-04-06T14:26:08;9.10;99.90
39189;DHT22;24915;50.858;4.376;2023-04-06T14:28:35;9.10;99.90
39189;DHT22;24915;50.858;4.376;2023-04-06T14:31:02;9.10;99.90
39189;DHT22;24915;50.858;4.376;2023-04-06T14:33:34;9.10;99.90
39189;DHT22;24915;50.858;4.376;2023-04-06T14:36:03;9.20;99.90
39189;DHT22;24915;50.858;4.376;2023-04-06T14:38:28;9.20;99.90
39189;DHT22;24915;50.858;4.376;2023-04-06T14:40:54;9.20;99.90
39189;DHT22;24915;50.858;4.376;2023-04-06T14:43:24;9.20;99.90
39189;DHT22;24915;50.858;4.376;2023-04-06T14:45:50;9.30;99.90
39189;DHT22;24915;50.858;4.376;2023-04-06T14:48:16;9.40;99.90
39189;DHT22;24915;50.858;4.376;2023-04-06T14:50:52;9.40;99.90
39189;DHT22;24915;50.858;4.376;2023-04-06T14:53:19;9.40;99.90
39189;DHT22;24915;50.858;4.376;2023-04-06T14:55:45;9.40;99.90
39189;DHT22;24915;50.858;4.376;2023-04-06T14:58:10;9.40;99.90
39189;DHT22;24915;50.858;4.376;2023-04-06T15:00:39;9.50;99.90
39189;DHT22;24915;50.858;4.376;2023-04-06T15:03:04;9.50;99.90
39189;DHT22;24915;50.858;4.376;2023-04-06T15:05:30;9.50;99.90
39189;DHT22;24915;50.858;4.376;2023-04-06T15:07:57;9.50;99.90
39189;DHT22;24915;50.858;4.376;2023-04-06T15:10:22;9.50;99.90
39189;DHT22;24915;50.858;4.376;2023-04-06T15:12:48;9.50;99.90
39189;DHT22;24915;50.858;4.376;2023-04-06T15:15:14;9.50;99.90
39189;DHT22;24915;50.858;4.376;2023-04-06T15:17:39;9.50;99.90
39189;DHT22;24915;50.858;4.376;2023-04-06T15:20:05;9.60;99.90
39189;DHT22;24915;50.858;4.376;2023-04-06T15:22:31;9.70;99.90
39189;DHT22;24915;50.858;4.376;2023-04-06T15:24:57;9.80;99.90
39189;DHT22;24915;50.858;4.376;2023-04-06T15:27:22;9.90;99.90
39189;DHT22;24915;50.858;4.376;2023-04-06T15:29:48;9.90;99.90
39189;DHT22;24915;50.858;4.376;2023-04-06T15:32:14;10.00;99.90
39189;DHT22;24915;50.858;4.376;2023-04-06T15:34:40;10.10;99.90
39189;DHT22;24915;50.858;4.376;2023-04-06T15:37:05;10.00;99.90
39189;DHT22;24915;50.858;4.376;2023-04-06T15:39:31;10.10;99.90
39189;DHT22;24915;50.858;4.376;2023-04-06T15:41:57;10.10;99.90
39189;DHT22;24915;50.858;4.376;2023-04-06T15:44:23;10.20;99.90